sensor_id;sensor_type;location;lat;lon;timestamp;P1;durP1;ratioP1;P2;durP2;ratioP2
22046;SDS011;11187;49.412;20.956;2023-04-26T00:00:02;23.67;;;21.17;;
22046;SDS011;11187;49.412;20.956;2023-04-26T00:02:50;26.27;;;19.40;;
22046;SDS011;11187;49.412;20.956;2023-04-26T00:05:25;24.35;;;19.65;;
22046;SDS011;11187;49.412;20.956;2023-04-26T00:08:13;23.27;;;20.73;;
22046;SDS011;11187;49.412;20.956;2023-04-26T00:10:46;22.23;;;19.35;;
22046;SDS011;11187;49.412;20.956;2023-04-26T00:13:33;21.85;;;19.52;;
22046;SDS011;11187;49.412;20.956;2023-04-26T00:16:06;25.67;;;20.65;;
22046;SDS011;11187;49.412;20.956;2023-04-26T00:18:53;22.30;;;19.85;;
22046;SDS011;11187;49.412;20.956;2023-04-26T00:21:26;23.98;;;20.63;;
22046;SDS011;11187;49.412;20.956;2023-04-26T00:24:20;26.85;;;21.38;;
22046;SDS011;11187;49.412;20.956;2023-04-26T00:27:14;23.20;;;19.92;;
22046;SDS011;11187;49.412;20.956;2023-04-26T00:29:47;25.70;;;21.60;;
22046;SDS011;11187;49.412;20.956;2023-04-26T00:32:35;23.40;;;20.00;;
22046;SDS011;11187;49.412;20.956;2023-04-26T00:35:08;26.65;;;19.92;;
22046;SDS011;11187;49.412;20.956;2023-04-26T00:37:55;24.15;;;19.60;;
22046;SDS011;11187;49.412;20.956;2023-04-26T00:40:29;25.42;;;20.80;;
22046;SDS011;11187;49.412;20.956;2023-04-26T00:43:16;22.60;;;20.00;;
22046;SDS011;11187;49.412;20.956;2023-04-26T00:45:50;19.83;;;17.77;;
22046;SDS011;11187;49.412;20.956;2023-04-26T00:48:37;21.13;;;18.83;;
22046;SDS011;11187;49.412;20.956;2023-04-26T00:51:10;24.80;;;20.67;;
22046;SDS011;11187;49.412;20.956;2023-04-26T00:53:58;22.23;;;18.63;;
22046;SDS011;11187;49.412;20.956;2023-04-26T00:56:31;21.85;;;18.02;;
22046;SDS011;11187;49.412;20.956;2023-04-26T00:59:19;21.42;;;18.45;;
22046;SDS011;11187;49.412;20.956;2023-04-26T01:01:52;23.00;;;18.63;;
22046;SDS011;11187;49.412;20.956;2023-04-26T01:04:39;20.40;;;17.55;;
22046;SDS011;11187;49.412;20.956;2023-04-26T01:10:19;20.60;;;18.50;;
22046;SDS011;11187;49.412;20.956;2023-04-26T01:12:52;17.40;;;15.05;;
22046;SDS011;11187;49.412;20.956;2023-04-26T01:15:49;19.38;;;17.33;;
22046;SDS011;11187;49.412;20.956;2023-04-26T01:18:23;21.25;;;16.83;;
22046;SDS011;11187;49.412;20.956;2023-04-26T01:21:20;20.02;;;17.90;;
22046;SDS011;11187;49.412;20.956;2023-04-26T01:24:18;23.20;;;18.23;;
22046;SDS011;11187;49.412;20.956;2023-04-26T01:27:12;20.25;;;18.05;;
22046;SDS011;11187;49.412;20.956;2023-04-26T01:29:45;18.73;;;16.92;;
22046;SDS011;11187;49.412;20.956;2023-04-26T01:32:32;18.40;;;15.57;;
22046;SDS011;11187;49.412;20.956;2023-04-26T01:35:06;29.92;;;17.65;;
22046;SDS011;11187;49.412;20.956;2023-04-26T01:37:54;19.38;;;17.35;;
22046;SDS011;11187;49.412;20.956;2023-04-26T01:40:27;19.33;;;17.42;;
22046;SDS011;11187;49.412;20.956;2023-04-26T01:43:14;20.15;;;16.27;;
22046;SDS011;11187;49.412;20.956;2023-04-26T01:45:49;20.52;;;16.45;;
22046;SDS011;11187;49.412;20.956;2023-04-26T01:48:43;19.20;;;17.20;;
22046;SDS011;11187;49.412;20.956;2023-04-26T01:51:17;20.38;;;16.85;;
22046;SDS011;11187;49.412;20.956;2023-04-26T01:54:03;20.52;;;18.50;;
22046;SDS011;11187;49.412;20.956;2023-04-26T01:56:36;24.35;;;19.52;;
22046;SDS011;11187;49.412;20.956;2023-04-26T01:59:23;21.45;;;19.17;;
22046;SDS011;11187;49.412;20.956;2023-04-26T02:01:56;23.45;;;19.42;;
22046;SDS011;11187;49.412;20.956;2023-04-26T02:04:50;23.60;;;19.08;;
22046;SDS011;11187;49.412;20.956;2023-04-26T02:07:23;20.08;;;17.75;;
22046;SDS011;11187;49.412;20.956;2023-04-26T02:10:10;20.58;;;18.23;;
22046;SDS011;11187;49.412;20.956;2023-04-26T02:12:43;21.08;;;17.85;;
22046;SDS011;11187;49.412;20.956;2023-04-26T02:15:37;19.70;;;17.70;;
22046;SDS011;11187;49.412;20.956;2023-04-26T02:18:31;19.20;;;17.40;;
22046;SDS011;11187;49.412;20.956;2023-04-26T02:21:06;20.02;;;17.92;;
22046;SDS011;11187;49.412;20.956;2023-04-26T02:23:53;17.52;;;15.68;;
22046;SDS011;11187;49.412;20.956;2023-04-26T02:26:26;19.33;;;17.30;;
22046;SDS011;11187;49.412;20.956;2023-04-26T02:29:13;21.17;;;17.80;;
22046;SDS011;11187;49.412;20.956;2023-04-26T02:32:05;18.92;;;17.00;;
22046;SDS011;11187;49.412;20.956;2023-04-26T02:34:59;19.60;;;17.88;;
22046;SDS011;11187;49.412;20.956;2023-04-26T02:37:53;18.27;;;16.45;;
22046;SDS011;11187;49.412;20.956;2023-04-26T02:40:26;19.98;;;17.00;;
22046;SDS011;11187;49.412;20.956;2023-04-26T02:43:20;19.98;;;17.13;;
22046;SDS011;11187;49.412;20.956;2023-04-26T02:45:53;19.05;;;16.35;;
22046;SDS011;11187;49.412;20.956;2023-04-26T02:48:47;18.20;;;16.50;;
22046;SDS011;11187;49.412;20.956;2023-04-26T02:51:20;18.33;;;16.35;;
22046;SDS011;11187;49.412;20.956;2023-04-26T02:54:07;18.88;;;16.40;;
22046;SDS011;11187;49.412;20.956;2023-04-26T02:56:40;18.67;;;15.77;;
22046;SDS011;11187;49.412;20.956;2023-04-26T02:59:27;18.60;;;16.48;;
22046;SDS011;11187;49.412;20.956;2023-04-26T03:02:00;19.58;;;15.43;;
22046;SDS011;11187;49.412;20.956;2023-04-26T03:04:47;17.33;;;15.52;;
22046;SDS011;11187;49.412;20.956;2023-04-26T03:07:20;17.05;;;15.27;;
22046;SDS011;11187;49.412;20.956;2023-04-26T03:10:14;18.52;;;16.48;;
22046;SDS011;11187;49.412;20.956;2023-04-26T03:12:47;18.92;;;16.98;;
22046;SDS011;11187;49.412;20.956;2023-04-26T03:15:44;19.27;;;15.75;;
22046;SDS011;11187;49.412;20.956;2023-04-26T03:18:18;18.38;;;16.40;;
22046;SDS011;11187;49.412;20.956;2023-04-26T03:21:12;24.15;;;15.70;;
22046;SDS011;11187;49.412;20.956;2023-04-26T03:24:06;18.13;;;15.43;;
22046;SDS011;11187;49.412;20.956;2023-04-26T03:26:39;17.35;;;15.70;;
22046;SDS011;11187;49.412;20.956;2023-04-26T03:29:26;18.40;;;16.10;;
22046;SDS011;11187;49.412;20.956;2023-04-26T03:31:59;16.88;;;15.32;;
22046;SDS011;11187;49.412;20.956;2023-04-26T03:34:53;17.13;;;15.43;;
22046;SDS011;11187;49.412;20.956;2023-04-26T03:37:26;16.90;;;15.45;;
22046;SDS011;11187;49.412;20.956;2023-04-26T03:40:20;21.88;;;15.68;;
22046;SDS011;11187;49.412;20.956;2023-04-26T03:43:14;16.90;;;15.25;;
22046;SDS011;11187;49.412;20.956;2023-04-26T03:46:10;16.27;;;14.60;;
22046;SDS011;11187;49.412;20.956;2023-04-26T03:48:43;17.25;;;14.35;;
22046;SDS011;11187;49.412;20.956;2023-04-26T03:51:30;16.48;;;14.13;;
22046;SDS011;11187;49.412;20.956;2023-04-26T03:54:04;15.75;;;13.98;;
22046;SDS011;11187;49.412;20.956;2023-04-26T03:56:57;21.23;;;14.20;;
22046;SDS011;11187;49.412;20.956;2023-04-26T03:59:30;14.30;;;13.00;;
22046;SDS011;11187;49.412;20.956;2023-04-26T04:02:24;14.77;;;13.27;;
22046;SDS011;11187;49.412;20.956;2023-04-26T04:05:18;14.77;;;13.38;;
22046;SDS011;11187;49.412;20.956;2023-04-26T04:07:52;15.05;;;13.50;;
22046;SDS011;11187;49.412;20.956;2023-04-26T04:10:38;16.00;;;12.48;;
22046;SDS011;11187;49.412;20.956;2023-04-26T04:13:11;13.70;;;10.90;;
22046;SDS011;11187;49.412;20.956;2023-04-26T04:15:58;18.05;;;13.02;;
22046;SDS011;11187;49.412;20.956;2023-04-26T04:18:31;20.40;;;12.95;;
22046;SDS011;11187;49.412;20.956;2023-04-26T04:21:18;14.48;;;12.90;;
22046;SDS011;11187;49.412;20.956;2023-04-26T04:23:52;14.70;;;11.40;;
22046;SDS011;11187;49.412;20.956;2023-04-26T04:26:38;17.42;;;12.07;;
22046;SDS011;11187;49.412;20.956;2023-04-26T04:29:19;14.80;;;12.30;;
22046;SDS011;11187;49.412;20.956;2023-04-26T04:32:06;14.15;;;11.38;;
22046;SDS011;11187;49.412;20.956;2023-04-26T04:34:39;14.07;;;10.45;;
22046;SDS011;11187;49.412;20.956;2023-04-26T04:37:33;14.48;;;11.25;;
22046;SDS011;11187;49.412;20.956;2023-04-26T04:40:07;11.88;;;10.73;;
22046;SDS011;11187;49.412;20.956;2023-04-26T04:43:01;14.15;;;10.50;;
22046;SDS011;11187;49.412;20.956;2023-04-26T04:45:55;19.95;;;11.07;;
22046;SDS011;11187;49.412;20.956;2023-04-26T04:48:51;13.25;;;12.05;;
22046;SDS011;11187;49.412;20.956;2023-04-26T04:51:24;13.15;;;11.95;;
22046;SDS011;11187;49.412;20.956;2023-04-26T04:54:12;13.98;;;12.23;;
22046;SDS011;11187;49.412;20.956;2023-04-26T04:56:46;13.40;;;11.80;;
22046;SDS011;11187;49.412;20.956;2023-04-26T04:59:40;13.85;;;11.95;;
22046;SDS011;11187;49.412;20.956;2023-04-26T05:02:35;15.68;;;12.70;;
22046;SDS011;11187;49.412;20.956;2023-04-26T05:05:29;18.02;;;12.43;;
22046;SDS011;11187;49.412;20.956;2023-04-26T05:08:23;14.00;;;12.70;;
22046;SDS011;11187;49.412;20.956;2023-04-26T05:10:56;14.52;;;12.27;;
22046;SDS011;11187;49.412;20.956;2023-04-26T05:13:44;17.88;;;14.25;;
22046;SDS011;11187;49.412;20.956;2023-04-26T05:16:18;13.63;;;12.30;;
22046;SDS011;11187;49.412;20.956;2023-04-26T05:19:05;16.70;;;11.38;;
22046;SDS011;11187;49.412;20.956;2023-04-26T05:21:38;14.25;;;11.63;;
22046;SDS011;11187;49.412;20.956;2023-04-26T05:24:28;12.98;;;11.85;;
22046;SDS011;11187;49.412;20.956;2023-04-26T05:27:01;13.48;;;12.07;;
22046;SDS011;11187;49.412;20.956;2023-04-26T05:29:48;14.30;;;11.95;;
22046;SDS011;11187;49.412;20.956;2023-04-26T05:32:21;17.52;;;12.98;;
22046;SDS011;11187;49.412;20.956;2023-04-26T05:35:08;14.88;;;12.07;;
22046;SDS011;11187;49.412;20.956;2023-04-26T05:37:41;18.17;;;12.40;;
22046;SDS011;11187;49.412;20.956;2023-04-26T05:40:28;14.27;;;12.80;;
22046;SDS011;11187;49.412;20.956;2023-04-26T05:43:02;17.25;;;12.15;;
22046;SDS011;11187;49.412;20.956;2023-04-26T05:45:56;12.98;;;11.68;;
22046;SDS011;11187;49.412;20.956;2023-04-26T05:48:30;17.77;;;14.23;;
22046;SDS011;11187;49.412;20.956;2023-04-26T05:51:16;22.05;;;14.88;;
22046;SDS011;11187;49.412;20.956;2023-04-26T05:53:49;15.98;;;14.48;;
22046;SDS011;11187;49.412;20.956;2023-04-26T05:56:43;15.32;;;12.27;;
22046;SDS011;11187;49.412;20.956;2023-04-26T05:59:17;20.52;;;13.40;;
22046;SDS011;11187;49.412;20.956;2023-04-26T06:02:03;19.63;;;14.35;;
22046;SDS011;11187;49.412;20.956;2023-04-26T06:04:37;15.70;;;13.40;;
22046;SDS011;11187;49.412;20.956;2023-04-26T06:07:23;16.92;;;13.13;;
22046;SDS011;11187;49.412;20.956;2023-04-26T06:09:57;14.40;;;12.88;;
22046;SDS011;11187;49.412;20.956;2023-04-26T06:12:43;15.73;;;13.30;;
22046;SDS011;11187;49.412;20.956;2023-04-26T06:15:17;15.90;;;14.43;;
22046;SDS011;11187;49.412;20.956;2023-04-26T06:18:03;16.08;;;14.40;;
22046;SDS011;11187;49.412;20.956;2023-04-26T06:20:38;16.33;;;13.68;;
22046;SDS011;11187;49.412;20.956;2023-04-26T06:23:24;21.95;;;15.23;;
22046;SDS011;11187;49.412;20.956;2023-04-26T06:25:57;14.38;;;12.93;;
22046;SDS011;11187;49.412;20.956;2023-04-26T06:28:51;15.38;;;12.85;;
22046;SDS011;11187;49.412;20.956;2023-04-26T06:31:45;15.75;;;12.50;;
22046;SDS011;11187;49.412;20.956;2023-04-26T06:34:18;16.25;;;14.55;;
22046;SDS011;11187;49.412;20.956;2023-04-26T06:37:06;16.98;;;12.90;;
22046;SDS011;11187;49.412;20.956;2023-04-26T06:39:39;13.88;;;11.90;;
22046;SDS011;11187;49.412;20.956;2023-04-26T06:42:25;14.02;;;12.07;;
22046;SDS011;11187;49.412;20.956;2023-04-26T06:44:58;12.43;;;11.32;;
22046;SDS011;11187;49.412;20.956;2023-04-26T06:47:52;16.45;;;12.15;;
22046;SDS011;11187;49.412;20.956;2023-04-26T06:50:46;12.68;;;11.68;;
22046;SDS011;11187;49.412;20.956;2023-04-26T06:53:19;13.88;;;12.18;;
22046;SDS011;11187;49.412;20.956;2023-04-26T06:56:06;13.82;;;12.50;;
22046;SDS011;11187;49.412;20.956;2023-04-26T06:58:56;13.82;;;12.43;;
22046;SDS011;11187;49.412;20.956;2023-04-26T07:01:44;15.77;;;12.27;;
22046;SDS011;11187;49.412;20.956;2023-04-26T07:04:18;13.98;;;11.50;;
22046;SDS011;11187;49.412;20.956;2023-04-26T07:07:04;19.92;;;11.82;;
22046;SDS011;11187;49.412;20.956;2023-04-26T07:09:39;11.75;;;10.60;;
22046;SDS011;11187;49.412;20.956;2023-04-26T07:12:32;12.68;;;10.73;;
22046;SDS011;11187;49.412;20.956;2023-04-26T07:15:27;11.45;;;9.77;;
22046;SDS011;11187;49.412;20.956;2023-04-26T07:18:00;11.48;;;10.27;;
22046;SDS011;11187;49.412;20.956;2023-04-26T07:20:46;14.43;;;13.20;;
22046;SDS011;11187;49.412;20.956;2023-04-26T07:23:20;14.43;;;11.85;;
22046;SDS011;11187;49.412;20.956;2023-04-26T07:26:09;11.90;;;10.57;;
22046;SDS011;11187;49.412;20.956;2023-04-26T07:28:43;18.40;;;11.77;;
22046;SDS011;11187;49.412;20.956;2023-04-26T07:31:30;13.77;;;12.38;;
22046;SDS011;11187;49.412;20.956;2023-04-26T07:34:04;11.85;;;10.75;;
22046;SDS011;11187;49.412;20.956;2023-04-26T07:36:50;13.00;;;11.93;;
22046;SDS011;11187;49.412;20.956;2023-04-26T07:39:24;12.40;;;11.13;;
22046;SDS011;11187;49.412;20.956;2023-04-26T07:42:17;12.50;;;11.15;;
22046;SDS011;11187;49.412;20.956;2023-04-26T07:45:11;11.18;;;9.73;;
22046;SDS011;11187;49.412;20.956;2023-04-26T07:48:05;11.48;;;10.48;;
22046;SDS011;11187;49.412;20.956;2023-04-26T07:50:39;12.18;;;11.07;;
22046;SDS011;11187;49.412;20.956;2023-04-26T07:53:25;15.13;;;10.80;;
22046;SDS011;11187;49.412;20.956;2023-04-26T07:55:59;12.88;;;11.68;;
22046;SDS011;11187;49.412;20.956;2023-04-26T07:58:48;13.13;;;11.90;;
22046;SDS011;11187;49.412;20.956;2023-04-26T08:01:22;14.02;;;12.18;;
22046;SDS011;11187;49.412;20.956;2023-04-26T08:04:16;12.70;;;11.60;;
22046;SDS011;11187;49.412;20.956;2023-04-26T08:07:10;14.93;;;13.63;;
22046;SDS011;11187;49.412;20.956;2023-04-26T08:09:44;15.45;;;14.10;;
22046;SDS011;11187;49.412;20.956;2023-04-26T08:12:31;14.32;;;12.93;;
22046;SDS011;11187;49.412;20.956;2023-04-26T08:15:05;14.85;;;13.43;;
22046;SDS011;11187;49.412;20.956;2023-04-26T08:17:52;12.52;;;11.43;;
22046;SDS011;11187;49.412;20.956;2023-04-26T08:20:26;13.48;;;11.02;;
22046;SDS011;11187;49.412;20.956;2023-04-26T08:23:12;16.15;;;12.60;;
22046;SDS011;11187;49.412;20.956;2023-04-26T08:25:46;13.70;;;12.40;;
22046;SDS011;11187;49.412;20.956;2023-04-26T08:28:39;11.00;;;10.07;;
22046;SDS011;11187;49.412;20.956;2023-04-26T08:31:13;15.50;;;10.48;;
22046;SDS011;11187;49.412;20.956;2023-04-26T08:34:01;12.82;;;11.52;;
22046;SDS011;11187;49.412;20.956;2023-04-26T08:36:35;13.30;;;11.80;;
22046;SDS011;11187;49.412;20.956;2023-04-26T08:39:22;12.77;;;11.48;;
22046;SDS011;11187;49.412;20.956;2023-04-26T08:41:56;13.27;;;12.07;;
22046;SDS011;11187;49.412;20.956;2023-04-26T08:44:56;13.20;;;11.88;;
22046;SDS011;11187;49.412;20.956;2023-04-26T08:47:56;13.35;;;12.30;;
22046;SDS011;11187;49.412;20.956;2023-04-26T08:50:36;13.10;;;12.00;;
22046;SDS011;11187;49.412;20.956;2023-04-26T08:53:25;13.40;;;12.30;;
22046;SDS011;11187;49.412;20.956;2023-04-26T08:56:00;16.08;;;11.73;;
22046;SDS011;11187;49.412;20.956;2023-04-26T08:58:47;14.77;;;13.25;;
22046;SDS011;11187;49.412;20.956;2023-04-26T09:01:21;12.02;;;10.95;;
22046;SDS011;11187;49.412;20.956;2023-04-26T09:04:17;14.18;;;13.07;;
22046;SDS011;11187;49.412;20.956;2023-04-26T09:06:51;12.00;;;10.90;;
22046;SDS011;11187;49.412;20.956;2023-04-26T09:09:41;11.57;;;10.48;;
22046;SDS011;11187;49.412;20.956;2023-04-26T09:12:19;12.02;;;10.85;;
22046;SDS011;11187;49.412;20.956;2023-04-26T09:15:05;12.07;;;10.90;;
22046;SDS011;11187;49.412;20.956;2023-04-26T09:17:40;12.43;;;11.13;;
22046;SDS011;11187;49.412;20.956;2023-04-26T09:20:34;13.27;;;11.90;;
22046;SDS011;11187;49.412;20.956;2023-04-26T09:23:08;12.73;;;11.43;;
22046;SDS011;11187;49.412;20.956;2023-04-26T09:25:55;12.18;;;10.98;;
22046;SDS011;11187;49.412;20.956;2023-04-26T09:28:29;11.52;;;10.07;;
22046;SDS011;11187;49.412;20.956;2023-04-26T09:34:14;11.13;;;10.18;;
22046;SDS011;11187;49.412;20.956;2023-04-26T09:37:00;11.38;;;10.20;;
22046;SDS011;11187;49.412;20.956;2023-04-26T09:39:35;12.07;;;11.15;;
22046;SDS011;11187;49.412;20.956;2023-04-26T09:42:23;11.93;;;10.70;;
22046;SDS011;11187;49.412;20.956;2023-04-26T09:45:04;10.50;;;9.20;;
22046;SDS011;11187;49.412;20.956;2023-04-26T09:48:20;11.82;;;10.80;;
22046;SDS011;11187;49.412;20.956;2023-04-26T09:51:16;12.40;;;11.32;;
22046;SDS011;11187;49.412;20.956;2023-04-26T09:53:50;17.45;;;10.35;;
22046;SDS011;11187;49.412;20.956;2023-04-26T09:56:57;11.45;;;10.30;;
22046;SDS011;11187;49.412;20.956;2023-04-26T09:59:51;13.10;;;11.27;;
22046;SDS011;11187;49.412;20.956;2023-04-26T10:02:27;13.23;;;11.32;;
22046;SDS011;11187;49.412;20.956;2023-04-26T10:05:13;14.35;;;11.60;;
22046;SDS011;11187;49.412;20.956;2023-04-26T10:07:47;12.32;;;11.10;;
22046;SDS011;11187;49.412;20.956;2023-04-26T10:10:36;13.52;;;12.32;;
22046;SDS011;11187;49.412;20.956;2023-04-26T10:13:10;10.98;;;10.07;;
22046;SDS011;11187;49.412;20.956;2023-04-26T10:16:03;12.60;;;11.52;;
22046;SDS011;11187;49.412;20.956;2023-04-26T10:18:38;12.73;;;11.63;;
22046;SDS011;11187;49.412;20.956;2023-04-26T10:21:33;11.70;;;10.60;;
22046;SDS011;11187;49.412;20.956;2023-04-26T10:24:11;17.35;;;10.93;;
22046;SDS011;11187;49.412;20.956;2023-04-26T10:26:57;12.63;;;11.02;;
22046;SDS011;11187;49.412;20.956;2023-04-26T10:35:28;11.45;;;10.45;;
22046;SDS011;11187;49.412;20.956;2023-04-26T10:38:23;11.90;;;10.85;;
22046;SDS011;11187;49.412;20.956;2023-04-26T10:50:12;10.27;;;9.30;;
22046;SDS011;11187;49.412;20.956;2023-04-26T10:53:06;10.60;;;9.18;;
22046;SDS011;11187;49.412;20.956;2023-04-26T10:55:52;11.32;;;10.43;;
22046;SDS011;11187;49.412;20.956;2023-04-26T10:58:26;11.07;;;9.85;;
22046;SDS011;11187;49.412;20.956;2023-04-26T11:01:15;11.82;;;10.88;;
22046;SDS011;11187;49.412;20.956;2023-04-26T11:07:00;11.77;;;10.77;;
22046;SDS011;11187;49.412;20.956;2023-04-26T11:12:21;13.27;;;10.50;;
22046;SDS011;11187;49.412;20.956;2023-04-26T11:14:55;11.07;;;9.63;;
22046;SDS011;11187;49.412;20.956;2023-04-26T11:17:45;10.63;;;9.68;;
22046;SDS011;11187;49.412;20.956;2023-04-26T11:20:19;11.88;;;10.88;;
22046;SDS011;11187;49.412;20.956;2023-04-26T11:23:06;10.27;;;9.48;;
22046;SDS011;11187;49.412;20.956;2023-04-26T11:25:41;11.45;;;9.82;;
22046;SDS011;11187;49.412;20.956;2023-04-26T11:28:27;12.48;;;11.35;;
22046;SDS011;11187;49.412;20.956;2023-04-26T11:31:02;11.75;;;10.18;;
22046;SDS011;11187;49.412;20.956;2023-04-26T11:33:52;13.73;;;10.77;;
22046;SDS011;11187;49.412;20.956;2023-04-26T11:36:26;11.45;;;10.35;;
22046;SDS011;11187;49.412;20.956;2023-04-26T11:39:19;12.48;;;10.63;;
22046;SDS011;11187;49.412;20.956;2023-04-26T11:42:13;12.07;;;11.07;;
22046;SDS011;11187;49.412;20.956;2023-04-26T11:45:07;11.70;;;10.70;;
22046;SDS011;11187;49.412;20.956;2023-04-26T11:48:05;12.32;;;11.15;;
22046;SDS011;11187;49.412;20.956;2023-04-26T11:50:40;11.82;;;10.98;;
22046;SDS011;11187;49.412;20.956;2023-04-26T11:53:36;12.35;;;11.10;;
22046;SDS011;11187;49.412;20.956;2023-04-26T11:56:13;11.60;;;10.65;;
22046;SDS011;11187;49.412;20.956;2023-04-26T11:59:08;12.75;;;10.93;;
22046;SDS011;11187;49.412;20.956;2023-04-26T12:01:48;20.45;;;10.75;;
22046;SDS011;11187;49.412;20.956;2023-04-26T12:04:37;11.75;;;10.75;;
22046;SDS011;11187;49.412;20.956;2023-04-26T12:07:17;12.48;;;11.57;;
22046;SDS011;11187;49.412;20.956;2023-04-26T12:10:13;13.68;;;12.25;;
22046;SDS011;11187;49.412;20.956;2023-04-26T12:12:48;11.60;;;10.68;;
22046;SDS011;11187;49.412;20.956;2023-04-26T12:15:36;12.18;;;11.10;;
22046;SDS011;11187;49.412;20.956;2023-04-26T12:18:11;11.82;;;10.82;;
22046;SDS011;11187;49.412;20.956;2023-04-26T12:20:58;11.50;;;10.48;;
22046;SDS011;11187;49.412;20.956;2023-04-26T12:23:38;13.82;;;12.63;;
22046;SDS011;11187;49.412;20.956;2023-04-26T12:26:41;11.40;;;10.27;;
22046;SDS011;11187;49.412;20.956;2023-04-26T12:29:17;12.45;;;11.45;;
22046;SDS011;11187;49.412;20.956;2023-04-26T12:32:03;12.23;;;11.25;;
22046;SDS011;11187;49.412;20.956;2023-04-26T12:34:37;13.02;;;11.93;;
22046;SDS011;11187;49.412;20.956;2023-04-26T12:37:23;11.75;;;10.80;;
22046;SDS011;11187;49.412;20.956;2023-04-26T12:39:57;12.30;;;11.00;;
22046;SDS011;11187;49.412;20.956;2023-04-26T12:42:51;14.60;;;13.60;;
22046;SDS011;11187;49.412;20.956;2023-04-26T12:45:45;13.23;;;12.13;;
22046;SDS011;11187;49.412;20.956;2023-04-26T12:48:19;13.55;;;12.55;;
22046;SDS011;11187;49.412;20.956;2023-04-26T12:51:05;13.75;;;12.65;;
22046;SDS011;11187;49.412;20.956;2023-04-26T12:53:39;12.90;;;12.00;;
22046;SDS011;11187;49.412;20.956;2023-04-26T12:56:32;11.80;;;10.80;;
22046;SDS011;11187;49.412;20.956;2023-04-26T12:59:06;13.00;;;12.00;;
22046;SDS011;11187;49.412;20.956;2023-04-26T13:01:52;11.68;;;10.48;;
22046;SDS011;11187;49.412;20.956;2023-04-26T13:04:26;12.85;;;11.68;;
22046;SDS011;11187;49.412;20.956;2023-04-26T13:07:20;14.23;;;13.13;;
22046;SDS011;11187;49.412;20.956;2023-04-26T13:10:14;13.40;;;12.30;;
22046;SDS011;11187;49.412;20.956;2023-04-26T13:12:48;11.30;;;10.20;;
22046;SDS011;11187;49.412;20.956;2023-04-26T13:15:36;12.25;;;11.25;;
22046;SDS011;11187;49.412;20.956;2023-04-26T13:18:10;13.68;;;12.77;;
22046;SDS011;11187;49.412;20.956;2023-04-26T13:21:03;12.30;;;11.20;;
22046;SDS011;11187;49.412;20.956;2023-04-26T13:23:37;13.40;;;11.60;;
22046;SDS011;11187;49.412;20.956;2023-04-26T13:26:24;12.93;;;11.75;;
22046;SDS011;11187;49.412;20.956;2023-04-26T13:28:58;13.38;;;11.95;;
22046;SDS011;11187;49.412;20.956;2023-04-26T13:31:44;12.60;;;11.70;;
22046;SDS011;11187;49.412;20.956;2023-04-26T13:34:18;11.93;;;10.90;;
22046;SDS011;11187;49.412;20.956;2023-04-26T13:37:04;11.70;;;10.52;;
22046;SDS011;11187;49.412;20.956;2023-04-26T13:39:38;11.57;;;10.48;;
22046;SDS011;11187;49.412;20.956;2023-04-26T13:42:31;12.07;;;11.10;;
22046;SDS011;11187;49.412;20.956;2023-04-26T13:45:25;12.07;;;11.15;;
22046;SDS011;11187;49.412;20.956;2023-04-26T13:48:19;11.55;;;10.55;;
22046;SDS011;11187;49.412;20.956;2023-04-26T13:50:53;13.43;;;12.10;;
22046;SDS011;11187;49.412;20.956;2023-04-26T13:53:39;12.15;;;11.23;;
22046;SDS011;11187;49.412;20.956;2023-04-26T13:56:13;11.20;;;10.35;;
22046;SDS011;11187;49.412;20.956;2023-04-26T13:58:59;12.30;;;11.15;;
22046;SDS011;11187;49.412;20.956;2023-04-26T14:01:35;13.57;;;12.07;;
22046;SDS011;11187;49.412;20.956;2023-04-26T14:04:31;12.93;;;11.93;;
22046;SDS011;11187;49.412;20.956;2023-04-26T14:07:05;11.20;;;10.00;;
22046;SDS011;11187;49.412;20.956;2023-04-26T14:09:59;15.23;;;11.32;;
22046;SDS011;11187;49.412;20.956;2023-04-26T14:12:33;12.43;;;11.32;;
22046;SDS011;11187;49.412;20.956;2023-04-26T14:15:19;12.15;;;11.15;;
22046;SDS011;11187;49.412;20.956;2023-04-26T14:17:53;12.35;;;10.07;;
22046;SDS011;11187;49.412;20.956;2023-04-26T14:20:39;12.20;;;10.60;;
22046;SDS011;11187;49.412;20.956;2023-04-26T14:23:13;11.20;;;10.30;;
22046;SDS011;11187;49.412;20.956;2023-04-26T14:25:59;10.55;;;9.45;;
22046;SDS011;11187;49.412;20.956;2023-04-26T14:28:33;14.07;;;11.05;;
22046;SDS011;11187;49.412;20.956;2023-04-26T14:31:26;14.43;;;9.45;;
22046;SDS011;11187;49.412;20.956;2023-04-26T14:34:02;12.63;;;9.98;;
22046;SDS011;11187;49.412;20.956;2023-04-26T14:36:48;10.13;;;9.23;;
22046;SDS011;11187;49.412;20.956;2023-04-26T14:39:22;10.80;;;9.85;;
22046;SDS011;11187;49.412;20.956;2023-04-26T14:42:15;12.05;;;10.70;;
22046;SDS011;11187;49.412;20.956;2023-04-26T14:45:12;14.88;;;11.43;;
22046;SDS011;11187;49.412;20.956;2023-04-26T14:47:53;10.93;;;9.73;;
22046;SDS011;11187;49.412;20.956;2023-04-26T14:50:40;15.95;;;11.63;;
22046;SDS011;11187;49.412;20.956;2023-04-26T14:53:14;11.55;;;10.55;;
22046;SDS011;11187;49.412;20.956;2023-04-26T14:56:00;11.13;;;10.13;;
22046;SDS011;11187;49.412;20.956;2023-04-26T14:58:37;10.38;;;9.40;;
22046;SDS011;11187;49.412;20.956;2023-04-26T15:01:23;13.05;;;11.85;;
22046;SDS011;11187;49.412;20.956;2023-04-26T15:03:57;11.02;;;10.02;;
22046;SDS011;11187;49.412;20.956;2023-04-26T15:06:50;11.55;;;10.45;;
22046;SDS011;11187;49.412;20.956;2023-04-26T15:09:24;10.93;;;9.82;;
22046;SDS011;11187;49.412;20.956;2023-04-26T15:12:10;13.00;;;10.57;;
22046;SDS011;11187;49.412;20.956;2023-04-26T15:14:44;12.23;;;11.13;;
22046;SDS011;11187;49.412;20.956;2023-04-26T15:17:31;14.73;;;11.18;;
22046;SDS011;11187;49.412;20.956;2023-04-26T15:20:05;12.05;;;10.93;;
22046;SDS011;11187;49.412;20.956;2023-04-26T15:22:51;12.00;;;10.82;;
22046;SDS011;11187;49.412;20.956;2023-04-26T15:25:25;13.90;;;11.93;;
22046;SDS011;11187;49.412;20.956;2023-04-26T15:28:11;13.10;;;10.90;;
22046;SDS011;11187;49.412;20.956;2023-04-26T15:30:45;12.50;;;11.30;;
22046;SDS011;11187;49.412;20.956;2023-04-26T15:33:31;12.63;;;11.15;;
22046;SDS011;11187;49.412;20.956;2023-04-26T15:36:05;11.40;;;10.43;;
22046;SDS011;11187;49.412;20.956;2023-04-26T15:38:59;12.75;;;10.82;;
22046;SDS011;11187;49.412;20.956;2023-04-26T15:41:33;12.82;;;11.70;;
22046;SDS011;11187;49.412;20.956;2023-04-26T15:44:19;15.23;;;10.90;;
22046;SDS011;11187;49.412;20.956;2023-04-26T15:46:53;12.93;;;11.80;;
22046;SDS011;11187;49.412;20.956;2023-04-26T15:49:46;12.55;;;11.30;;
22046;SDS011;11187;49.412;20.956;2023-04-26T15:52:40;14.13;;;12.82;;
22046;SDS011;11187;49.412;20.956;2023-04-26T15:55:34;11.65;;;10.65;;
22046;SDS011;11187;49.412;20.956;2023-04-26T15:58:08;12.05;;;11.15;;
22046;SDS011;11187;49.412;20.956;2023-04-26T16:00:54;12.18;;;11.25;;
22046;SDS011;11187;49.412;20.956;2023-04-26T16:03:28;12.30;;;11.10;;
22046;SDS011;11187;49.412;20.956;2023-04-26T16:06:14;14.63;;;12.10;;